createdAt,value
2022-11-13T00:01:20.156Z,9.20
2022-11-13T00:03:49.634Z,9.20
2022-11-13T00:06:17.897Z,9.20
2022-11-13T00:08:45.353Z,9.10
2022-11-13T00:11:18.576Z,9.20
2022-11-13T00:13:46.595Z,9.10
2022-11-13T00:16:17.225Z,9.10
2022-11-13T00:18:44.837Z,9.00
2022-11-13T00:21:14.213Z,8.90
2022-11-13T00:23:42.814Z,8.90
2022-11-13T00:26:13.553Z,8.90
2022-11-13T00:28:41.318Z,9.00
2022-11-13T00:31:10.825Z,9.00
2022-11-13T00:36:29.410Z,9.00
2022-11-13T00:38:56.979Z,9.00
2022-11-13T00:41:24.743Z,8.90
2022-11-13T00:43:52.395Z,8.90
2022-11-13T00:46:19.976Z,8.90
2022-11-13T00:48:47.074Z,8.90
2022-11-13T00:51:14.589Z,8.90
2022-11-13T00:53:41.953Z,8.90
2022-11-13T00:56:08.948Z,8.90
2022-11-13T00:58:36.375Z,8.90
2022-11-13T01:01:12.005Z,9.00
2022-11-13T01:03:39.756Z,9.00
2022-11-13T01:06:10.905Z,9.10
2022-11-13T01:08:38.085Z,9.00
2022-11-13T01:11:21.427Z,9.00
2022-11-13T01:13:50.429Z,8.90
2022-11-13T01:16:19.537Z,8.80
2022-11-13T01:18:46.854Z,8.90
2022-11-13T01:21:17.852Z,8.90
2022-11-13T01:23:45.187Z,9.10
2022-11-13T01:26:22.297Z,9.10
2022-11-13T01:28:49.569Z,9.10
2022-11-13T01:31:19.829Z,9.10
2022-11-13T01:33:48.223Z,9.00
2022-11-13T01:36:24.957Z,9.00
2022-11-13T01:38:52.304Z,9.10
2022-11-13T01:41:38.298Z,9.10
2022-11-13T01:44:11.548Z,9.00
2022-11-13T01:46:42.892Z,9.00
2022-11-13T01:49:09.839Z,9.00
2022-11-13T01:51:58.996Z,9.00
2022-11-13T01:54:32.886Z,9.10
2022-11-13T01:57:01.502Z,9.20
2022-11-13T01:59:34.485Z,9.10
2022-11-13T02:02:02.005Z,9.00
2022-11-13T02:04:30.763Z,9.00
2022-11-13T02:07:04.631Z,8.90
2022-11-13T02:09:40.365Z,8.90
2022-11-13T02:12:12.104Z,8.80
2022-11-13T02:14:43.652Z,8.90
2022-11-13T02:17:15.753Z,8.90
2022-11-13T02:19:48.461Z,8.90
2022-11-13T02:22:31.231Z,9.00
2022-11-13T02:25:02.028Z,9.10
2022-11-13T02:27:38.441Z,9.20
2022-11-13T02:30:26.516Z,9.10
2022-11-13T02:32:55.730Z,9.00
2022-11-13T02:35:33.199Z,9.00
2022-11-13T02:38:03.644Z,9.00
2022-11-13T02:40:32.707Z,9.10
2022-11-13T02:43:00.987Z,9.20
2022-11-13T02:45:28.385Z,9.20
2022-11-13T02:47:55.536Z,9.10
2022-11-13T02:50:22.977Z,9.00
2022-11-13T02:52:50.613Z,9.00
2022-11-13T02:55:19.357Z,8.90
2022-11-13T02:57:46.828Z,8.90
2022-11-13T03:00:14.620Z,8.90
2022-11-13T03:02:41.744Z,8.90
2022-11-13T03:05:12.499Z,8.90
2022-11-13T03:07:41.572Z,8.90
2022-11-13T03:10:10.481Z,8.90
2022-11-13T03:12:37.874Z,8.90
2022-11-13T03:15:07.002Z,8.90
2022-11-13T03:17:36.056Z,9.00
2022-11-13T03:20:03.917Z,9.00
2022-11-13T03:22:31.356Z,9.00
2022-11-13T03:24:58.487Z,9.00
2022-11-13T03:27:25.776Z,9.00
2022-11-13T03:29:52.875Z,9.00
2022-11-13T03:32:19.852Z,8.90
2022-11-13T03:34:47.304Z,8.90
2022-11-13T03:37:14.402Z,8.90
2022-11-13T03:39:44.984Z,8.90
2022-11-13T03:42:12.705Z,8.90
2022-11-13T03:44:39.689Z,8.90
2022-11-13T03:47:07.066Z,8.90
2022-11-13T03:49:34.469Z,9.00
2022-11-13T03:52:01.629Z,8.90
2022-11-13T03:54:28.740Z,8.90
2022-11-13T03:56:56.263Z,8.90
2022-11-13T03:59:23.307Z,8.90
2022-11-13T04:01:51.011Z,8.90
2022-11-13T04:04:18.199Z,8.80
2022-11-13T04:06:45.337Z,8.90
2022-11-13T04:09:13.516Z,8.90
2022-11-13T04:11:40.522Z,8.90
2022-11-13T04:14:07.941Z,8.90
2022-11-13T04:16:34.999Z,8.90
2022-11-13T04:19:02.305Z,8.90
2022-11-13T04:21:30.876Z,8.90
2022-11-13T04:23:57.957Z,8.90
2022-11-13T04:26:25.110Z,8.90
2022-11-13T04:28:52.479Z,8.90
2022-11-13T04:31:19.484Z,8.90
2022-11-13T04:33:46.584Z,8.80
2022-11-13T04:36:14.103Z,8.80
2022-11-13T04:38:42.105Z,8.90
2022-11-13T04:41:28.663Z,8.90
2022-11-13T04:43:56.091Z,9.00
2022-11-13T04:46:23.133Z,9.00
2022-11-13T04:48:50.414Z,9.00
2022-11-13T04:51:17.628Z,9.00
2022-11-13T04:53:44.827Z,8.90
2022-11-13T04:56:12.293Z,8.90
2022-11-13T04:58:39.312Z,9.00
2022-11-13T05:01:06.659Z,9.00
2022-11-13T05:03:33.708Z,8.90
2022-11-13T05:06:09.099Z,8.90
2022-11-13T05:08:37.051Z,8.90
2022-11-13T05:11:04.662Z,8.90
2022-11-13T05:13:34.159Z,8.90
2022-11-13T05:16:07.132Z,8.80
2022-11-13T05:18:36.577Z,8.90
2022-11-13T05:21:06.019Z,8.90
2022-11-13T05:23:33.647Z,8.90
2022-11-13T05:26:09.491Z,8.80
2022-11-13T05:28:37.407Z,8.80
2022-11-13T05:31:10.500Z,8.90
2022-11-13T05:33:38.911Z,8.80
2022-11-13T05:36:14.713Z,8.80
2022-11-13T05:38:44.132Z,8.80
2022-11-13T05:41:13.388Z,8.90
2022-11-13T05:43:41.137Z,9.00
2022-11-13T05:46:09.797Z,9.00
2022-11-13T05:48:37.475Z,9.00
2022-11-13T05:51:11.590Z,8.90
2022-11-13T05:53:39.521Z,8.80
2022-11-13T05:56:22.191Z,8.80
2022-11-13T05:58:50.559Z,8.80
2022-11-13T06:01:32.683Z,8.80
2022-11-13T06:04:00.944Z,8.80
2022-11-13T06:06:30.159Z,8.80
2022-11-13T06:08:59.204Z,8.80
2022-11-13T06:11:28.463Z,8.80
2022-11-13T06:13:58.055Z,8.80
2022-11-13T06:16:33.760Z,8.80
2022-11-13T06:19:04.128Z,8.80
2022-11-13T06:21:32.847Z,8.80
2022-11-13T06:24:01.419Z,8.80
2022-11-13T06:26:32.142Z,8.80
2022-11-13T06:29:00.898Z,8.80
2022-11-13T06:31:30.663Z,8.70
2022-11-13T06:33:59.452Z,8.80
2022-11-13T06:36:29.296Z,8.80
2022-11-13T06:38:57.260Z,8.90
2022-11-13T06:41:27.466Z,8.90
2022-11-13T06:43:58.512Z,8.90
2022-11-13T06:46:29.977Z,8.90
2022-11-13T06:48:57.566Z,8.90
2022-11-13T06:51:27.695Z,8.80
2022-11-13T06:53:55.368Z,8.80
2022-11-13T06:56:22.592Z,8.80
2022-11-13T06:58:50.071Z,8.80
2022-11-13T07:01:22.269Z,8.80
2022-11-13T07:03:49.707Z,8.90
2022-11-13T07:06:22.541Z,8.90
2022-11-13T07:08:50.250Z,8.90
2022-11-13T07:11:21.464Z,8.90
2022-11-13T07:13:48.633Z,8.80
2022-11-13T07:16:18.175Z,8.90
2022-11-13T07:18:53.461Z,9.00
2022-11-13T07:21:21.848Z,9.10
2022-11-13T07:23:50.329Z,9.10
2022-11-13T07:26:17.911Z,9.10
2022-11-13T07:28:45.571Z,9.10
2022-11-13T07:31:14.616Z,9.10
2022-11-13T07:33:42.278Z,9.10
2022-11-13T07:36:10.559Z,9.00
2022-11-13T07:38:37.868Z,9.00
2022-11-13T07:41:06.108Z,9.00
2022-11-13T07:43:34.404Z,9.00
2022-11-13T07:46:03.527Z,8.90
2022-11-13T07:48:31.062Z,8.80
2022-11-13T07:51:03.305Z,8.90
2022-11-13T07:53:30.958Z,8.80
2022-11-13T07:56:01.843Z,8.90
2022-11-13T07:58:29.373Z,8.90
2022-11-13T08:01:03.222Z,8.90
2022-11-13T08:03:30.618Z,8.90
2022-11-13T08:06:03.627Z,8.90
2022-11-13T08:08:31.343Z,8.90
2022-11-13T08:10:59.242Z,8.80
2022-11-13T08:13:27.683Z,8.80
2022-11-13T08:15:59.457Z,8.80
2022-11-13T08:18:28.663Z,8.90
2022-11-13T08:20:56.366Z,8.80
2022-11-13T08:23:23.655Z,8.80
2022-11-13T08:25:51.015Z,8.80
2022-11-13T08:28:18.552Z,8.70
2022-11-13T08:30:46.820Z,8.80
2022-11-13T08:33:13.913Z,8.90
2022-11-13T08:35:41.434Z,9.00
2022-11-13T08:38:09.610Z,8.90
2022-11-13T08:40:37.227Z,9.00
2022-11-13T08:43:05.134Z,9.00
2022-11-13T08:45:32.731Z,9.00
2022-11-13T08:48:04.076Z,9.10
2022-11-13T08:50:34.408Z,9.00
2022-11-13T08:53:01.780Z,8.90
2022-11-13T08:55:29.423Z,8.90
2022-11-13T08:58:00.112Z,9.10
2022-11-13T09:00:35.136Z,9.10
2022-11-13T09:03:03.963Z,9.10
2022-11-13T09:05:31.631Z,9.20
2022-11-13T09:08:01.142Z,9.20
2022-11-13T09:10:28.684Z,9.10
2022-11-13T09:13:05.090Z,9.10
2022-11-13T09:15:33.835Z,9.20
2022-11-13T09:18:02.940Z,9.20
2022-11-13T09:20:31.583Z,9.30
2022-11-13T09:23:05.322Z,9.20
2022-11-13T09:25:37.484Z,9.30
2022-11-13T09:28:06.386Z,9.40
2022-11-13T09:30:33.873Z,9.30
2022-11-13T09:33:01.992Z,9.20
2022-11-13T09:35:36.825Z,9.20
2022-11-13T09:38:11.076Z,9.20
2022-11-13T09:40:58.868Z,9.30
2022-11-13T09:43:35.369Z,9.40
2022-11-13T09:46:11.564Z,9.50
2022-11-13T09:48:42.917Z,9.50
2022-11-13T09:51:21.756Z,9.50
2022-11-13T09:53:49.646Z,9.50
2022-11-13T09:56:32.442Z,9.50
2022-11-13T09:59:15.583Z,9.60
2022-11-13T10:01:51.763Z,9.70
2022-11-13T10:04:32.495Z,9.50
2022-11-13T10:07:13.632Z,9.50
2022-11-13T10:10:00.026Z,9.50
2022-11-13T10:12:30.320Z,9.50
2022-11-13T10:15:02.261Z,9.50
2022-11-13T10:17:38.967Z,9.70
2022-11-13T10:20:21.794Z,9.70
2022-11-13T10:22:55.998Z,9.60
2022-11-13T10:25:31.316Z,9.60
2022-11-13T10:28:11.372Z,9.60
2022-11-13T10:30:50.815Z,9.50
2022-11-13T10:33:21.159Z,9.60
2022-11-13T10:35:59.029Z,9.60
2022-11-13T10:38:33.767Z,9.60
2022-11-13T10:41:12.584Z,9.60
2022-11-13T10:43:55.975Z,9.50
2022-11-13T10:46:25.945Z,9.60
2022-11-13T10:48:53.188Z,9.60
2022-11-13T10:51:29.881Z,9.50
2022-11-13T10:53:59.120Z,9.60
2022-11-13T10:56:31.762Z,9.60
2022-11-13T10:59:16.681Z,9.50
2022-11-13T11:01:45.610Z,9.50
2022-11-13T11:04:30.163Z,9.40
2022-11-13T11:07:20.246Z,9.40
2022-11-13T11:09:50.826Z,9.50
2022-11-13T11:12:20.551Z,9.60
2022-11-13T11:15:00.558Z,9.50
2022-11-13T11:17:54.742Z,9.50
2022-11-13T11:20:40.676Z,9.60
2022-11-13T11:23:19.616Z,9.60
2022-11-13T11:26:00.932Z,9.50
2022-11-13T11:28:45.114Z,9.60
2022-11-13T11:31:35.866Z,9.70
2022-11-13T11:34:18.104Z,10.00
2022-11-13T11:36:51.241Z,10.00
2022-11-13T11:39:39.915Z,10.10
2022-11-13T11:42:15.652Z,9.90
2022-11-13T11:44:48.892Z,9.90
2022-11-13T11:47:17.839Z,9.80
2022-11-13T11:49:45.331Z,9.90
2022-11-13T11:52:24.261Z,10.00
2022-11-13T11:55:30.323Z,10.10
2022-11-13T11:58:06.817Z,10.10
2022-11-13T12:00:39.984Z,10.10
2022-11-13T12:03:19.236Z,10.10
2022-11-13T12:05:46.321Z,10.20
2022-11-13T12:08:22.790Z,10.40
2022-11-13T12:11:07.971Z,10.40
2022-11-13T12:14:00.838Z,10.20
2022-11-13T12:16:32.368Z,10.10
2022-11-13T12:19:08.410Z,10.00
2022-11-13T12:21:35.344Z,10.00
2022-11-13T12:24:17.197Z,10.10
2022-11-13T12:27:08.807Z,10.20
2022-11-13T12:29:36.231Z,10.20
2022-11-13T12:32:22.265Z,10.30
2022-11-13T12:35:11.708Z,10.40
2022-11-13T12:38:03.506Z,10.30
2022-11-13T12:40:53.777Z,10.30
2022-11-13T12:43:35.625Z,10.30
2022-11-13T12:46:13.436Z,10.10
2022-11-13T12:48:46.967Z,10.20
2022-11-13T12:51:18.854Z,10.20
2022-11-13T12:53:52.282Z,10.20
2022-11-13T12:56:26.508Z,10.30
2022-11-13T12:59:31.334Z,10.30
2022-11-13T13:02:08.601Z,10.20
2022-11-13T13:05:07.582Z,10.20
2022-11-13T13:07:46.096Z,10.20
2022-11-13T13:10:36.082Z,10.30
2022-11-13T13:13:48.761Z,10.40
2022-11-13T13:16:26.118Z,10.40
2022-11-13T13:19:05.257Z,10.40
2022-11-13T13:21:44.232Z,10.50
2022-11-13T13:24:36.777Z,10.40
2022-11-13T13:27:26.299Z,10.30
2022-11-13T13:29:53.676Z,10.30
2022-11-13T13:32:39.413Z,10.50
2022-11-13T13:35:56.288Z,10.50
2022-11-13T13:38:47.969Z,10.60
2022-11-13T13:41:21.271Z,10.50
2022-11-13T13:44:12.722Z,10.60
2022-11-13T13:46:42.117Z,10.60
2022-11-13T13:49:16.252Z,10.70
2022-11-13T13:51:54.846Z,10.70
2022-11-13T13:54:28.042Z,10.60
2022-11-13T13:56:58.030Z,10.60
2022-11-13T13:59:28.283Z,10.60
2022-11-13T14:02:00.629Z,10.60
2022-11-13T14:04:46.042Z,10.50
2022-11-13T14:07:30.444Z,10.50
2022-11-13T14:10:13.340Z,10.50
2022-11-13T14:12:45.662Z,10.50
2022-11-13T14:15:28.046Z,10.40
2022-11-13T14:18:29.211Z,10.40
2022-11-13T14:20:59.704Z,10.40
2022-11-13T14:23:37.817Z,10.40
2022-11-13T14:26:06.021Z,10.40
2022-11-13T14:28:43.228Z,10.40
2022-11-13T14:31:12.755Z,10.40
2022-11-13T14:33:49.032Z,10.40
2022-11-13T14:36:25.001Z,10.40
2022-11-13T14:38:53.652Z,10.40
2022-11-13T14:41:50.771Z,10.30
2022-11-13T14:44:32.325Z,10.30
2022-11-13T14:47:05.557Z,10.30
2022-11-13T14:49:35.689Z,10.30
2022-11-13T14:52:03.493Z,10.30
2022-11-13T14:55:14.099Z,10.20
2022-11-13T14:57:26.650Z,10.30
2022-11-13T14:59:54.189Z,10.30
2022-11-13T15:02:21.787Z,10.30
2022-11-13T15:04:49.108Z,10.30
2022-11-13T15:07:29.340Z,10.20
2022-11-13T15:09:58.235Z,10.20
2022-11-13T15:12:25.538Z,10.10
2022-11-13T15:14:54.013Z,10.10
2022-11-13T15:17:22.739Z,10.10
2022-11-13T15:19:53.820Z,10.10
2022-11-13T15:22:26.991Z,10.10
2022-11-13T15:24:55.173Z,10.10
2022-11-13T15:27:22.282Z,10.10
2022-11-13T15:29:49.809Z,10.10
2022-11-13T15:32:16.962Z,10.10
2022-11-13T15:34:44.374Z,10.00
2022-11-13T15:37:16.884Z,10.10
2022-11-13T15:39:44.458Z,10.00
2022-11-13T15:42:16.014Z,10.10
2022-11-13T15:44:43.794Z,10.10
2022-11-13T15:47:33.545Z,10.00
2022-11-13T15:50:17.033Z,10.00
2022-11-13T15:52:47.396Z,10.10
2022-11-13T15:55:28.925Z,10.00
2022-11-13T15:57:57.832Z,10.10
2022-11-13T16:00:27.359Z,10.10
2022-11-13T16:02:57.549Z,10.00
2022-11-13T16:05:29.657Z,10.10
2022-11-13T16:07:57.050Z,10.00
2022-11-13T16:10:25.466Z,10.00
2022-11-13T16:12:53.703Z,10.00
2022-11-13T16:15:22.555Z,10.00
2022-11-13T16:17:55.678Z,10.00
2022-11-13T16:20:23.276Z,10.00
2022-11-13T16:22:50.772Z,10.00
2022-11-13T16:25:21.081Z,10.00
2022-11-13T16:27:48.299Z,10.00
2022-11-13T16:30:23.421Z,10.00
2022-11-13T16:32:50.868Z,10.10
2022-11-13T16:35:19.903Z,10.00
2022-11-13T16:37:47.205Z,10.10
2022-11-13T16:40:20.674Z,10.00
2022-11-13T16:42:48.403Z,10.00
2022-11-13T16:45:16.952Z,10.00
2022-11-13T16:47:44.883Z,10.00
2022-11-13T16:50:18.228Z,10.00
2022-11-13T16:52:45.522Z,10.00
2022-11-13T16:55:16.101Z,10.00
2022-11-13T16:57:43.204Z,10.10
2022-11-13T17:00:16.290Z,10.00
2022-11-13T17:02:44.895Z,10.10
2022-11-13T17:05:17.272Z,10.00
2022-11-13T17:07:44.918Z,10.00
2022-11-13T17:10:32.410Z,10.00
2022-11-13T17:13:00.983Z,10.00
2022-11-13T17:15:28.736Z,10.00
2022-11-13T17:17:58.368Z,10.10
2022-11-13T17:20:26.064Z,10.00
2022-11-13T17:22:53.365Z,10.00
2022-11-13T17:25:23.355Z,10.00
2022-11-13T17:27:50.406Z,10.00
2022-11-13T17:30:18.990Z,10.00
2022-11-13T17:32:46.221Z,10.00
2022-11-13T17:35:13.837Z,10.00
2022-11-13T17:37:41.482Z,10.00
2022-11-13T17:40:10.659Z,10.00
2022-11-13T17:42:37.695Z,10.00
2022-11-13T17:45:05.779Z,9.90
2022-11-13T17:47:34.345Z,9.90
2022-11-13T17:50:07.135Z,9.90
2022-11-13T17:52:34.991Z,9.90
2022-11-13T17:55:06.261Z,9.90
2022-11-13T17:57:33.790Z,9.90
2022-11-13T18:00:01.305Z,9.90
2022-11-13T18:02:28.448Z,9.90
2022-11-13T18:04:59.143Z,9.90
2022-11-13T18:07:29.824Z,9.90
2022-11-13T18:09:57.433Z,9.80
2022-11-13T18:12:25.067Z,9.90
2022-11-13T18:14:52.916Z,9.90
2022-11-13T18:17:21.004Z,9.90
2022-11-13T18:19:49.111Z,9.80
2022-11-13T18:22:16.663Z,9.80
2022-11-13T18:24:44.516Z,9.60
2022-11-13T18:27:14.245Z,9.50
2022-11-13T18:29:41.728Z,9.40
2022-11-13T18:32:08.894Z,9.40
2022-11-13T18:34:36.401Z,9.40
2022-11-13T18:37:03.632Z,9.50
2022-11-13T18:39:31.129Z,9.30
2022-11-13T18:42:00.364Z,9.30
2022-11-13T18:44:27.755Z,9.30
2022-11-13T18:46:55.057Z,9.30
2022-11-13T18:49:23.142Z,9.30
2022-11-13T18:51:52.924Z,9.20
2022-11-13T18:54:20.597Z,9.30
2022-11-13T18:56:47.836Z,9.20
2022-11-13T18:59:15.263Z,9.20
2022-11-13T19:01:43.006Z,9.10
2022-11-13T19:04:27.919Z,9.10
2022-11-13T19:06:55.314Z,9.10
2022-11-13T19:09:23.069Z,9.00
2022-11-13T19:11:51.493Z,9.00
2022-11-13T19:14:19.244Z,8.90
2022-11-13T19:16:47.241Z,8.90
2022-11-13T19:19:20.898Z,9.00
2022-11-13T19:21:48.454Z,8.90
2022-11-13T19:24:17.215Z,8.80
2022-11-13T19:26:45.107Z,8.80
2022-11-13T19:29:13.760Z,8.70
2022-11-13T19:31:41.152Z,8.80
2022-11-13T19:34:09.929Z,8.90
2022-11-13T19:36:37.336Z,8.80
2022-11-13T19:39:05.360Z,8.80
2022-11-13T19:41:32.893Z,8.90
2022-11-13T19:44:00.501Z,8.80
2022-11-13T19:46:32.511Z,8.80
2022-11-13T19:49:00.090Z,8.80
2022-11-13T19:51:27.681Z,8.90
2022-11-13T19:53:57.997Z,8.90
2022-11-13T19:56:28.627Z,9.00
2022-11-13T19:58:56.792Z,9.00
2022-11-13T20:01:26.777Z,9.00
2022-11-13T20:03:59.627Z,9.00
2022-11-13T20:06:28.651Z,9.00
2022-11-13T20:08:58.283Z,9.10
2022-11-13T20:11:25.985Z,9.10
2022-11-13T20:13:53.984Z,9.00
2022-11-13T20:16:23.486Z,9.00
2022-11-13T20:18:51.082Z,8.90
2022-11-13T20:21:29.817Z,9.00
2022-11-13T20:23:58.878Z,9.10
2022-11-13T20:26:26.277Z,9.00
2022-11-13T20:28:53.980Z,9.20
2022-11-13T20:31:23.332Z,9.20
2022-11-13T20:33:55.143Z,9.20
2022-11-13T20:36:23.719Z,9.20
2022-11-13T20:38:55.655Z,9.20
2022-11-13T20:41:24.198Z,9.30
2022-11-13T20:43:52.591Z,9.30
2022-11-13T20:46:20.995Z,9.30
2022-11-13T20:48:48.756Z,9.30
2022-11-13T20:51:22.021Z,9.30
2022-11-13T20:53:49.600Z,9.20
2022-11-13T20:56:18.398Z,9.20
2022-11-13T20:58:45.869Z,9.20
2022-11-13T21:01:16.238Z,9.20
2022-11-13T21:03:45.432Z,9.10
2022-11-13T21:06:15.680Z,9.10
2022-11-13T21:08:43.598Z,9.10
2022-11-13T21:11:29.366Z,9.00
2022-11-13T21:13:57.605Z,9.10
2022-11-13T21:16:25.512Z,9.10
2022-11-13T21:18:52.892Z,9.00
2022-11-13T21:21:22.099Z,9.00
2022-11-13T21:23:49.303Z,9.00
2022-11-13T21:26:19.007Z,9.00
2022-11-13T21:28:46.944Z,9.00
2022-11-13T21:31:16.893Z,9.00
2022-11-13T21:33:45.560Z,9.00
2022-11-13T21:36:16.528Z,9.00
2022-11-13T21:38:43.954Z,8.90
2022-11-13T21:41:22.990Z,9.00
2022-11-13T21:44:04.939Z,9.00
2022-11-13T21:46:35.179Z,9.00
2022-11-13T21:49:10.220Z,9.00
2022-11-13T21:51:40.254Z,8.90
2022-11-13T21:54:08.800Z,9.00
2022-11-13T21:56:37.868Z,9.00
2022-11-13T21:59:08.231Z,9.00
2022-11-13T22:01:38.596Z,9.00
2022-11-13T22:04:06.782Z,9.00
2022-11-13T22:06:42.291Z,8.90
2022-11-13T22:09:20.502Z,8.90
2022-11-13T22:11:48.108Z,8.90
2022-11-13T22:14:16.920Z,9.00
2022-11-13T22:16:46.634Z,8.90
2022-11-13T22:19:25.231Z,9.00
2022-11-13T22:21:55.969Z,9.00
2022-11-13T22:24:23.154Z,9.00
2022-11-13T22:26:50.956Z,9.00
2022-11-13T22:29:18.030Z,9.00
2022-11-13T22:31:47.202Z,9.00
2022-11-13T22:34:14.302Z,9.00
2022-11-13T22:36:41.737Z,9.00
2022-11-13T22:39:09.065Z,9.00
2022-11-13T22:41:36.907Z,9.00
2022-11-13T22:44:12.713Z,9.00
2022-11-13T22:46:41.288Z,9.00
2022-11-13T22:49:08.671Z,8.90
2022-11-13T22:51:39.085Z,9.00
2022-11-13T22:54:08.713Z,8.90
2022-11-13T22:56:38.318Z,9.00
2022-11-13T22:59:09.881Z,8.90
2022-11-13T23:01:38.648Z,8.90
2022-11-13T23:04:09.682Z,8.90
2022-11-13T23:06:37.515Z,8.90
2022-11-13T23:09:05.996Z,8.90
2022-11-13T23:11:39.228Z,8.90
2022-11-13T23:14:10.587Z,8.90
2022-11-13T23:16:38.315Z,8.90
2022-11-13T23:19:05.390Z,8.90
2022-11-13T23:21:32.458Z,8.90
2022-11-13T23:24:00.273Z,8.90
2022-11-13T23:26:28.610Z,8.90
2022-11-13T23:28:57.327Z,8.90
2022-11-13T23:31:24.918Z,8.90
2022-11-13T23:33:52.481Z,8.90
2022-11-13T23:36:20.878Z,8.90
2022-11-13T23:38:48.272Z,8.90
2022-11-13T23:41:15.714Z,8.90
2022-11-13T23:46:31.254Z,8.90
2022-11-13T23:48:58.276Z,8.90
2022-11-13T23:51:25.676Z,8.90
2022-11-13T23:53:53.969Z,9.00
2022-11-13T23:56:21.407Z,8.90
2022-11-13T23:58:48.665Z,8.90
